createdAt,value
2023-04-22T00:01:19.474Z,1.00
2023-04-22T00:03:48.988Z,1.00
2023-04-22T00:06:17.248Z,1.00
2023-04-22T00:08:45.209Z,1.00
2023-04-22T00:11:13.283Z,1.00
2023-04-22T00:13:41.248Z,1.00
2023-04-22T00:16:09.707Z,1.00
2023-04-22T00:18:37.725Z,1.00
2023-04-22T00:21:07.828Z,1.00
2023-04-22T00:23:35.894Z,1.00
2023-04-22T00:26:04.334Z,1.00
2023-04-22T00:28:32.397Z,1.00
2023-04-22T00:31:02.961Z,1.00
2023-04-22T00:33:30.979Z,1.00
2023-04-22T00:35:58.942Z,1.00
2023-04-22T00:38:28.272Z,1.00
2023-04-22T00:40:56.404Z,1.00
2023-04-22T00:43:24.341Z,1.00
2023-04-22T00:45:52.571Z,1.00
2023-04-22T00:48:21.142Z,1.00
2023-04-22T00:50:49.099Z,1.00
2023-04-22T00:53:17.213Z,1.00
2023-04-22T00:55:46.590Z,1.00
2023-04-22T00:58:14.735Z,1.00
2023-04-22T01:00:42.726Z,1.00
2023-04-22T01:03:11.976Z,1.00
2023-04-22T01:05:41.263Z,1.00
2023-04-22T01:08:09.224Z,1.00
2023-04-22T01:10:37.531Z,1.00
2023-04-22T01:13:06.820Z,1.00
2023-04-22T01:15:35.047Z,1.00
2023-04-22T01:18:03.798Z,1.00
2023-04-22T01:20:32.163Z,1.00
2023-04-22T01:23:04.899Z,1.00
2023-04-22T01:25:34.813Z,9.10
2023-04-22T01:28:03.683Z,47.50
2023-04-22T01:30:31.895Z,91.40
2023-04-22T01:33:00.539Z,99.90
2023-04-22T01:35:30.236Z,48.20
2023-04-22T01:37:58.543Z,43.90
2023-04-22T01:40:28.606Z,38.40
2023-04-22T01:42:58.796Z,30.80
2023-04-22T01:45:27.140Z,19.20
2023-04-22T01:47:55.552Z,9.90
2023-04-22T01:50:24.318Z,9.80
2023-04-22T01:52:52.870Z,8.00
2023-04-22T01:55:20.878Z,10.50
2023-04-22T01:57:48.888Z,7.20
2023-04-22T02:00:19.036Z,16.30
2023-04-22T02:02:47.146Z,1.10
2023-04-22T02:05:15.847Z,10.70
2023-04-22T02:07:43.812Z,20.90
2023-04-22T02:10:12.602Z,27.00
2023-04-22T02:12:40.658Z,1.00
2023-04-22T02:15:09.724Z,1.00
2023-04-22T02:17:39.326Z,1.00
2023-04-22T02:20:09.198Z,1.00
2023-04-22T02:22:38.000Z,15.60
2023-04-22T02:25:06.901Z,24.10
2023-04-22T02:27:34.935Z,31.70
2023-04-22T02:30:03.885Z,37.80
2023-04-22T02:32:32.144Z,57.60
2023-04-22T02:35:02.126Z,60.00
2023-04-22T02:37:30.151Z,63.10
2023-04-22T02:39:58.087Z,71.00
2023-04-22T02:42:26.052Z,94.00
2023-04-22T02:44:54.046Z,96.10
2023-04-22T02:47:22.815Z,99.90
2023-04-22T02:49:50.837Z,99.90
2023-04-22T02:52:20.715Z,99.90
2023-04-22T02:54:48.804Z,99.90
2023-04-22T02:57:16.810Z,99.90
2023-04-22T02:59:44.732Z,99.90
2023-04-22T03:02:12.795Z,99.90
2023-04-22T03:04:40.916Z,99.90
2023-04-22T03:07:08.928Z,99.90
2023-04-22T03:09:38.414Z,99.90
2023-04-22T03:12:06.688Z,99.90
2023-04-22T03:14:34.692Z,99.90
2023-04-22T03:17:02.905Z,99.90
2023-04-22T03:19:31.044Z,99.90
2023-04-22T03:21:59.257Z,99.90
2023-04-22T03:24:27.241Z,99.90
2023-04-22T03:26:56.612Z,99.90
2023-04-22T03:29:24.688Z,99.90
2023-04-22T03:31:52.729Z,1.00
2023-04-22T03:34:20.847Z,1.00
2023-04-22T03:36:48.831Z,1.00
2023-04-22T03:39:16.879Z,1.00
2023-04-22T03:41:44.818Z,1.00
2023-04-22T03:44:14.160Z,1.00
2023-04-22T03:46:42.091Z,1.00
2023-04-22T03:49:10.509Z,1.00
2023-04-22T03:51:38.837Z,1.00
2023-04-22T03:54:07.062Z,1.00
2023-04-22T03:56:35.112Z,1.00
2023-04-22T03:59:03.122Z,1.00
2023-04-22T04:01:32.433Z,1.00
2023-04-22T04:04:00.704Z,1.00
2023-04-22T04:06:28.944Z,1.00
2023-04-22T04:08:56.908Z,1.00
2023-04-22T04:11:24.905Z,1.00
2023-04-22T04:13:52.853Z,1.00
2023-04-22T04:16:20.909Z,1.00
2023-04-22T04:18:52.827Z,1.00
2023-04-22T04:21:20.762Z,1.00
2023-04-22T04:23:48.931Z,1.00
2023-04-22T04:26:18.116Z,1.00
2023-04-22T04:28:46.067Z,1.00
2023-04-22T04:31:14.297Z,1.00
2023-04-22T04:33:42.385Z,1.00
2023-04-22T04:36:11.899Z,1.00
2023-04-22T04:38:39.874Z,1.00
2023-04-22T04:41:09.652Z,1.00
2023-04-22T04:43:37.719Z,1.00
2023-04-22T04:46:05.938Z,1.00
2023-04-22T04:48:35.959Z,1.00
2023-04-22T04:51:04.393Z,1.00
2023-04-22T04:53:33.708Z,1.00
2023-04-22T04:56:01.710Z,1.00
2023-04-22T04:58:29.711Z,1.00
2023-04-22T05:00:57.737Z,1.00
2023-04-22T05:03:25.817Z,1.00
2023-04-22T05:05:53.994Z,1.00
2023-04-22T05:08:22.080Z,1.00
2023-04-22T05:10:51.454Z,1.00
2023-04-22T05:13:19.474Z,1.00
2023-04-22T05:15:47.434Z,1.00
2023-04-22T05:18:15.376Z,1.00
2023-04-22T05:20:43.377Z,1.00
2023-04-22T05:23:11.373Z,1.00
2023-04-22T05:25:39.336Z,1.00
2023-04-22T05:28:08.675Z,1.00
2023-04-22T05:30:36.674Z,1.00
2023-04-22T05:33:04.677Z,1.00
2023-04-22T05:35:32.621Z,1.00
2023-04-22T05:38:00.770Z,1.00
2023-04-22T05:40:28.793Z,1.00
2023-04-22T05:42:57.975Z,1.00
2023-04-22T05:45:27.471Z,1.00
2023-04-22T05:47:55.642Z,1.00
2023-04-22T05:50:23.924Z,1.00
2023-04-22T05:52:51.899Z,1.00
2023-04-22T05:55:19.997Z,1.00
2023-04-22T05:57:48.080Z,1.00
2023-04-22T06:00:17.518Z,1.00
2023-04-22T06:02:47.089Z,1.00
2023-04-22T06:05:15.445Z,1.00
2023-04-22T06:07:43.645Z,1.00
2023-04-22T06:10:11.762Z,1.00
2023-04-22T06:12:39.787Z,1.00
2023-04-22T06:15:08.750Z,1.00
2023-04-22T06:17:36.933Z,1.00
2023-04-22T06:20:07.536Z,1.00
2023-04-22T06:22:35.512Z,4.50
2023-04-22T06:25:03.767Z,8.20
2023-04-22T06:27:31.743Z,7.30
2023-04-22T06:29:59.762Z,9.60
2023-04-22T06:32:27.768Z,18.10
2023-04-22T06:34:55.815Z,10.10
2023-04-22T06:37:26.991Z,35.50
2023-04-22T06:39:54.971Z,22.60
2023-04-22T06:42:22.939Z,14.00
2023-04-22T06:44:50.866Z,1.00
2023-04-22T06:47:18.873Z,1.00
2023-04-22T06:49:46.917Z,1.00
2023-04-22T06:52:14.916Z,1.00
2023-04-22T06:54:44.358Z,1.00
2023-04-22T06:57:12.304Z,1.00
2023-04-22T06:59:40.652Z,1.00
2023-04-22T07:02:09.280Z,1.00
2023-04-22T07:04:37.413Z,1.00
2023-04-22T07:07:05.841Z,1.00
2023-04-22T07:09:36.143Z,1.00
2023-04-22T07:12:05.977Z,1.00
2023-04-22T07:14:34.155Z,1.00
2023-04-22T07:17:02.140Z,1.00
2023-04-22T07:19:30.142Z,1.00
2023-04-22T07:21:58.152Z,1.00
2023-04-22T07:24:26.129Z,1.00
2023-04-22T07:26:54.063Z,1.00
2023-04-22T07:29:23.359Z,1.00
2023-04-22T07:31:51.535Z,1.00
2023-04-22T07:34:19.677Z,1.00
2023-04-22T07:36:47.728Z,99.90
2023-04-22T07:39:15.957Z,99.90
2023-04-22T07:41:43.971Z,99.90
2023-04-22T07:44:16.380Z,99.90
2023-04-22T07:46:45.582Z,99.90
2023-04-22T07:49:14.214Z,99.90
2023-04-22T07:51:42.416Z,99.90
2023-04-22T07:54:10.404Z,99.90
2023-04-22T07:56:38.384Z,99.90
2023-04-22T07:59:06.377Z,99.90
2023-04-22T08:01:34.362Z,99.90
2023-04-22T08:04:04.124Z,99.90
2023-04-22T08:06:32.487Z,99.90
2023-04-22T08:09:00.499Z,91.70
2023-04-22T08:11:28.444Z,1.00
2023-04-22T08:13:56.456Z,1.00
2023-04-22T08:16:24.505Z,1.40
2023-04-22T08:18:53.192Z,1.00
2023-04-22T08:21:22.483Z,1.00
2023-04-22T08:23:50.436Z,1.00
2023-04-22T08:26:18.492Z,1.00
2023-04-22T08:28:46.465Z,1.00
2023-04-22T08:31:14.446Z,1.00
2023-04-22T08:33:42.654Z,1.00
2023-04-22T08:36:11.187Z,1.00
2023-04-22T08:38:40.500Z,1.00
2023-04-22T08:41:09.400Z,1.00
2023-04-22T08:43:37.721Z,1.00
2023-04-22T08:46:06.566Z,1.00
2023-04-22T08:48:34.617Z,1.00
2023-04-22T08:51:02.681Z,1.00
2023-04-22T08:53:30.687Z,1.00
2023-04-22T08:56:00.544Z,1.00
2023-04-22T08:58:29.850Z,1.00
2023-04-22T09:00:58.260Z,1.00
2023-04-22T09:03:27.191Z,1.00
2023-04-22T09:05:57.156Z,1.00
2023-04-22T09:08:25.689Z,1.00
2023-04-22T09:10:54.110Z,1.00
2023-04-22T09:13:25.169Z,1.00
2023-04-22T09:15:53.132Z,1.00
2023-04-22T09:18:21.561Z,1.00
2023-04-22T09:20:50.475Z,1.00
2023-04-22T09:23:18.538Z,1.00
2023-04-22T09:25:47.132Z,1.00
2023-04-22T09:28:19.444Z,1.00
2023-04-22T09:30:48.634Z,1.00
2023-04-22T09:33:17.467Z,1.00
2023-04-22T09:35:45.510Z,1.00
2023-04-22T09:38:14.403Z,1.00
2023-04-22T09:40:44.491Z,1.00
2023-04-22T09:43:12.960Z,1.00
2023-04-22T09:45:42.945Z,1.00
2023-04-22T09:48:14.395Z,1.00
2023-04-22T09:50:45.489Z,1.00
2023-04-22T09:53:15.699Z,1.00
2023-04-22T09:55:46.358Z,1.00
2023-04-22T09:58:18.150Z,1.00
2023-04-22T10:00:48.747Z,1.00
2023-04-22T10:03:18.700Z,1.00
2023-04-22T10:05:47.222Z,1.00
2023-04-22T10:08:17.256Z,1.00
2023-04-22T10:10:45.882Z,1.00
2023-04-22T10:13:13.868Z,1.00
2023-04-22T10:15:44.164Z,1.00
2023-04-22T10:18:15.084Z,1.00
2023-04-22T10:20:45.214Z,1.00
2023-04-22T10:23:19.642Z,1.00
2023-04-22T10:25:51.406Z,1.00
2023-04-22T10:28:21.685Z,1.00
2023-04-22T10:30:50.389Z,1.00
2023-04-22T10:33:39.054Z,1.00
2023-04-22T10:36:10.014Z,1.00
2023-04-22T10:38:38.695Z,1.00
2023-04-22T10:41:07.075Z,1.00
2023-04-22T10:43:45.682Z,1.00
2023-04-22T10:46:56.844Z,1.00
2023-04-22T10:49:26.011Z,1.00
2023-04-22T10:51:58.271Z,1.00
2023-04-22T10:54:44.722Z,1.00
2023-04-22T10:57:15.400Z,1.00
2023-04-22T10:59:50.115Z,1.00
2023-04-22T11:02:19.750Z,1.00
2023-04-22T11:04:48.222Z,1.00
2023-04-22T11:07:31.954Z,1.00
2023-04-22T11:10:03.185Z,1.00
2023-04-22T11:12:44.720Z,1.00
2023-04-22T11:15:14.341Z,1.00
2023-04-22T11:17:45.015Z,1.00
2023-04-22T11:20:14.039Z,1.00
2023-04-22T11:22:45.827Z,1.00
2023-04-22T11:25:14.572Z,1.00
2023-04-22T11:27:44.110Z,1.00
2023-04-22T11:30:15.099Z,1.00
2023-04-22T11:32:45.238Z,1.00
2023-04-22T11:35:15.123Z,1.00
2023-04-22T11:37:46.350Z,1.00
2023-04-22T11:40:29.154Z,1.00
2023-04-22T11:42:59.230Z,1.00
2023-04-22T11:45:28.322Z,1.00
2023-04-22T11:47:56.657Z,1.00
2023-04-22T11:50:26.736Z,1.00
2023-04-22T11:52:57.208Z,1.00
2023-04-22T11:55:27.941Z,1.00
2023-04-22T11:57:58.351Z,1.00
2023-04-22T12:00:30.558Z,1.00
2023-04-22T12:03:00.908Z,1.00
2023-04-22T12:05:40.339Z,1.00
2023-04-22T12:08:11.419Z,1.00
2023-04-22T12:10:44.939Z,1.00
2023-04-22T12:13:19.929Z,1.00
2023-04-22T12:15:48.108Z,1.00
2023-04-22T12:18:16.136Z,1.00
2023-04-22T12:20:44.212Z,1.00
2023-04-22T12:23:17.239Z,1.00
2023-04-22T12:25:45.284Z,1.00
2023-04-22T12:28:14.249Z,1.00
2023-04-22T12:30:42.657Z,1.00
2023-04-22T12:33:10.967Z,1.00
2023-04-22T12:35:39.111Z,1.00
2023-04-22T12:38:07.070Z,1.00
2023-04-22T12:40:36.412Z,1.00
2023-04-22T12:43:06.064Z,1.00
2023-04-22T12:45:34.235Z,1.00
2023-04-22T12:48:02.348Z,1.00
2023-04-22T12:50:30.340Z,1.00
2023-04-22T12:52:58.349Z,1.00
2023-04-22T12:55:26.448Z,1.00
2023-04-22T12:57:56.709Z,1.00
2023-04-22T13:00:25.542Z,1.00
2023-04-22T13:02:53.798Z,1.00
2023-04-22T13:05:22.089Z,1.00
2023-04-22T13:07:59.541Z,1.00
2023-04-22T13:10:34.607Z,1.00
2023-04-22T13:13:16.747Z,1.00
2023-04-22T13:15:47.022Z,1.00
2023-04-22T13:18:15.989Z,1.00
2023-04-22T13:20:44.099Z,1.00
2023-04-22T13:23:13.262Z,1.00
2023-04-22T13:25:41.387Z,1.00
2023-04-22T13:28:11.901Z,1.00
2023-04-22T13:30:40.201Z,1.00
2023-04-22T13:33:08.185Z,1.00
2023-04-22T13:35:36.838Z,1.00
2023-04-22T13:38:05.086Z,1.00
2023-04-22T13:40:33.055Z,1.00
2023-04-22T13:43:01.159Z,1.00
2023-04-22T13:45:30.573Z,1.00
2023-04-22T13:47:58.640Z,1.00
2023-04-22T13:50:26.690Z,1.00
2023-04-22T13:52:55.070Z,1.00
2023-04-22T13:55:23.023Z,1.00
2023-04-22T13:57:52.105Z,1.00
2023-04-22T14:00:20.838Z,1.00
2023-04-22T14:02:50.503Z,1.00
2023-04-22T14:05:18.690Z,1.00
2023-04-22T14:07:46.710Z,1.00
2023-04-22T14:10:16.341Z,1.00
2023-04-22T14:12:44.393Z,1.00
2023-04-22T14:15:12.503Z,1.00
2023-04-22T14:17:40.803Z,1.00
2023-04-22T14:20:11.748Z,1.00
2023-04-22T14:22:39.679Z,1.00
2023-04-22T14:25:08.762Z,1.00
2023-04-22T14:27:36.830Z,1.00
2023-04-22T14:30:06.212Z,1.00
2023-04-22T14:32:34.341Z,1.00
2023-04-22T14:35:02.354Z,1.00
2023-04-22T14:37:32.178Z,1.00
2023-04-22T14:40:00.400Z,1.00
2023-04-22T14:42:28.988Z,1.00
2023-04-22T14:44:56.976Z,1.00
2023-04-22T14:47:25.021Z,1.00
2023-04-22T14:49:53.069Z,1.00
2023-04-22T14:52:21.144Z,1.00
2023-04-22T14:54:52.063Z,1.00
2023-04-22T14:57:20.565Z,1.00
2023-04-22T14:59:48.528Z,1.00
2023-04-22T15:02:16.953Z,1.00
2023-04-22T15:04:45.537Z,1.00
2023-04-22T15:07:13.612Z,1.00
2023-04-22T15:09:41.881Z,1.00
2023-04-22T15:12:11.454Z,1.00
2023-04-22T15:14:40.300Z,1.00
2023-04-22T15:17:08.463Z,1.00
2023-04-22T15:19:36.576Z,1.00
2023-04-22T15:22:04.667Z,1.00
2023-04-22T15:24:32.807Z,1.00
2023-04-22T15:27:03.114Z,1.00
2023-04-22T15:29:32.779Z,1.00
2023-04-22T15:32:02.377Z,1.00
2023-04-22T15:34:30.701Z,1.00
2023-04-22T15:36:58.806Z,1.00
2023-04-22T15:39:26.796Z,1.00
2023-04-22T15:41:54.779Z,1.00
2023-04-22T15:44:23.554Z,1.00
2023-04-22T15:46:54.027Z,1.00
2023-04-22T15:49:22.388Z,1.00
2023-04-22T15:51:51.445Z,1.00
2023-04-22T15:54:19.571Z,1.00
2023-04-22T15:56:47.652Z,1.00
2023-04-22T15:59:15.955Z,1.00
2023-04-22T16:01:46.417Z,1.00
2023-04-22T16:04:16.502Z,1.00
2023-04-22T16:06:44.668Z,1.00
2023-04-22T16:09:12.686Z,1.00
2023-04-22T16:11:40.642Z,1.00
2023-04-22T16:14:10.848Z,1.00
2023-04-22T16:16:41.026Z,1.00
2023-04-22T16:19:09.416Z,1.00
2023-04-22T16:21:39.082Z,1.00
2023-04-22T16:24:07.723Z,1.00
2023-04-22T16:26:35.826Z,1.00
2023-04-22T16:29:04.229Z,1.00
2023-04-22T16:31:32.191Z,1.00
2023-04-22T16:34:00.228Z,1.00
2023-04-22T16:36:29.102Z,1.00
2023-04-22T16:38:58.456Z,1.00
2023-04-22T16:41:26.592Z,1.00
2023-04-22T16:43:54.685Z,1.00
2023-04-22T16:46:22.681Z,1.00
2023-04-22T16:48:50.665Z,1.00
2023-04-22T16:51:18.702Z,1.00
2023-04-22T16:53:47.017Z,1.00
2023-04-22T16:56:16.418Z,1.00
2023-04-22T16:58:44.336Z,1.00
2023-04-22T17:01:12.304Z,1.00
2023-04-22T17:03:40.602Z,1.00
2023-04-22T17:06:09.038Z,1.00
2023-04-22T17:08:37.008Z,1.00
2023-04-22T17:11:05.212Z,1.00
2023-04-22T17:13:34.598Z,1.00
2023-04-22T17:16:02.750Z,1.00
2023-04-22T17:18:30.760Z,1.00
2023-04-22T17:20:58.871Z,1.00
2023-04-22T17:23:27.680Z,1.00
2023-04-22T17:25:55.681Z,1.00
2023-04-22T17:28:23.744Z,1.00
2023-04-22T17:30:53.166Z,1.00
2023-04-22T17:33:21.159Z,1.00
2023-04-22T17:35:49.099Z,1.00
2023-04-22T17:38:17.125Z,1.00
2023-04-22T17:40:45.179Z,1.00
2023-04-22T17:43:13.182Z,1.00
2023-04-22T17:45:41.218Z,1.00
2023-04-22T17:48:10.674Z,1.00
2023-04-22T17:50:38.785Z,1.00
2023-04-22T17:53:07.056Z,1.00
2023-04-22T17:55:35.680Z,1.00
2023-04-22T17:58:03.757Z,1.00
2023-04-22T18:00:31.836Z,1.00
2023-04-22T18:03:01.281Z,1.00
2023-04-22T18:05:30.795Z,1.00
2023-04-22T18:08:02.367Z,1.00
2023-04-22T18:10:31.190Z,1.00
2023-04-22T18:12:59.196Z,1.00
2023-04-22T18:15:28.242Z,1.00
2023-04-22T18:17:56.392Z,1.00
2023-04-22T18:20:24.375Z,1.00
2023-04-22T18:22:53.751Z,1.00
2023-04-22T18:25:22.658Z,1.00
2023-04-22T18:27:54.878Z,1.00
2023-04-22T18:30:24.150Z,1.00
2023-04-22T18:32:53.127Z,1.00
2023-04-22T18:35:21.412Z,1.00
2023-04-22T18:37:49.363Z,1.00
2023-04-22T18:40:20.403Z,1.00
2023-04-22T18:42:48.433Z,1.00
2023-04-22T18:45:16.834Z,1.00
2023-04-22T18:47:45.798Z,1.00
2023-04-22T18:50:13.878Z,1.00
2023-04-22T18:52:42.669Z,1.00
2023-04-22T18:55:11.173Z,1.00
2023-04-22T18:57:41.532Z,1.00
2023-04-22T19:00:11.409Z,1.00
2023-04-22T19:02:42.167Z,1.00
2023-04-22T19:05:11.180Z,1.00
2023-04-22T19:07:41.187Z,1.00
2023-04-22T19:10:10.757Z,1.00
2023-04-22T19:12:40.120Z,1.00
2023-04-22T19:15:09.352Z,1.00
2023-04-22T19:17:38.039Z,1.00
2023-04-22T19:20:08.297Z,1.00
2023-04-22T19:22:36.381Z,1.00
2023-04-22T19:25:06.193Z,1.00
2023-04-22T19:27:34.491Z,1.00
2023-04-22T19:30:03.970Z,1.00
2023-04-22T19:32:32.409Z,1.00
2023-04-22T19:35:03.716Z,1.00
2023-04-22T19:37:32.148Z,1.00
2023-04-22T19:40:00.114Z,1.00
2023-04-22T19:42:29.082Z,1.00
2023-04-22T19:44:58.961Z,1.00
2023-04-22T19:47:28.681Z,1.00
2023-04-22T19:49:57.399Z,1.00
2023-04-22T19:52:26.176Z,1.00
2023-04-22T19:54:56.158Z,1.00
2023-04-22T19:57:24.810Z,1.00
2023-04-22T19:59:53.992Z,1.00
2023-04-22T20:02:23.850Z,1.00
2023-04-22T20:04:53.650Z,1.00
2023-04-22T20:07:22.087Z,1.00
2023-04-22T20:09:51.691Z,1.00
2023-04-22T20:12:19.862Z,1.00
2023-04-22T20:14:48.170Z,1.00
2023-04-22T20:17:16.737Z,1.00
2023-04-22T20:19:45.592Z,1.00
2023-04-22T20:22:17.910Z,1.00
2023-04-22T20:24:48.223Z,1.00
2023-04-22T20:27:17.101Z,1.00
2023-04-22T20:29:46.267Z,1.00
2023-04-22T20:32:14.519Z,1.00
2023-04-22T20:34:43.055Z,1.00
2023-04-22T20:37:13.429Z,1.00
2023-04-22T20:39:44.395Z,1.00
2023-04-22T20:42:13.096Z,1.00
2023-04-22T20:44:41.213Z,1.00
2023-04-22T20:47:09.446Z,1.00
2023-04-22T20:49:40.440Z,1.00
2023-04-22T20:52:09.237Z,1.00
2023-04-22T20:54:37.514Z,1.00
2023-04-22T20:57:08.199Z,1.00
2023-04-22T20:59:36.787Z,1.00
2023-04-22T21:02:06.742Z,1.00
2023-04-22T21:04:35.697Z,1.00
2023-04-22T21:07:06.637Z,1.00
2023-04-22T21:09:35.164Z,1.00
2023-04-22T21:12:03.762Z,1.00
2023-04-22T21:14:33.772Z,1.00
2023-04-22T21:17:04.739Z,1.00
2023-04-22T21:19:34.226Z,1.00
2023-04-22T21:22:05.959Z,1.00
2023-04-22T21:24:35.595Z,1.00
2023-04-22T21:27:04.080Z,1.00
2023-04-22T21:29:34.070Z,1.00
2023-04-22T21:32:09.283Z,1.00
2023-04-22T21:34:37.934Z,1.00
2023-04-22T21:37:07.759Z,1.00
2023-04-22T21:39:36.329Z,1.00
2023-04-22T21:42:07.928Z,1.00
2023-04-22T21:44:38.564Z,1.00
2023-04-22T21:47:06.886Z,1.00
2023-04-22T21:49:34.934Z,1.00
2023-04-22T21:52:02.964Z,1.00
2023-04-22T21:54:31.026Z,23.20
2023-04-22T21:56:59.118Z,48.20
2023-04-22T21:59:27.108Z,55.20
2023-04-22T22:01:56.441Z,57.00
2023-04-22T22:04:24.550Z,82.90
2023-04-22T22:06:52.593Z,83.10
2023-04-22T22:09:21.399Z,92.30
2023-04-22T22:11:51.480Z,91.80
2023-04-22T22:14:19.494Z,86.70
2023-04-22T22:16:49.936Z,99.90
2023-04-22T22:19:20.133Z,99.90
2023-04-22T22:21:48.242Z,99.90
2023-04-22T22:24:16.216Z,99.90
2023-04-22T22:26:44.255Z,99.90
2023-04-22T22:29:15.543Z,99.90
2023-04-22T22:31:44.088Z,99.90
2023-04-22T22:34:12.272Z,99.90
2023-04-22T22:36:41.911Z,99.90
2023-04-22T22:39:11.997Z,99.90
2023-04-22T22:41:41.647Z,99.90
2023-04-22T22:44:11.256Z,99.90
2023-04-22T22:46:40.289Z,99.90
2023-04-22T22:49:08.304Z,99.90
2023-04-22T22:51:37.447Z,99.90
2023-04-22T22:54:07.568Z,99.90
2023-04-22T22:56:35.611Z,99.90
2023-04-22T22:59:03.609Z,99.90
2023-04-22T23:01:31.750Z,99.90
2023-04-22T23:03:59.840Z,99.90
2023-04-22T23:06:28.254Z,99.90
2023-04-22T23:08:57.073Z,99.90
2023-04-22T23:11:26.529Z,99.90
2023-04-22T23:13:54.509Z,99.90
2023-04-22T23:16:22.798Z,99.90
2023-04-22T23:18:53.167Z,99.90
2023-04-22T23:21:22.362Z,99.90
2023-04-22T23:23:51.682Z,99.90
2023-04-22T23:26:20.270Z,99.90
2023-04-22T23:28:50.181Z,99.90
2023-04-22T23:31:19.756Z,99.90
2023-04-22T23:33:51.561Z,99.90
2023-04-22T23:36:20.977Z,99.90
2023-04-22T23:38:49.037Z,99.90
2023-04-22T23:41:17.072Z,99.90
2023-04-22T23:43:45.074Z,99.90
2023-04-22T23:46:15.288Z,99.90
2023-04-22T23:48:44.734Z,99.90
2023-04-22T23:51:16.090Z,99.90
2023-04-22T23:53:44.354Z,99.90
2023-04-22T23:56:13.989Z,99.90
2023-04-22T23:58:42.657Z,99.90
